sensor_id;sensor_type;location;lat;lon;timestamp;temperature;humidity
25582;DHT22;13462;50.764;4.332;2022-08-03T00:01:37;20.50;99.90
25582;DHT22;13462;50.764;4.332;2022-08-03T00:04:04;20.40;99.90
25582;DHT22;13462;50.764;4.332;2022-08-03T00:06:30;20.30;99.90
25582;DHT22;13462;50.764;4.332;2022-08-03T00:08:56;20.20;99.90
25582;DHT22;13462;50.764;4.332;2022-08-03T00:11:21;20.10;99.90
25582;DHT22;13462;50.764;4.332;2022-08-03T00:13:47;20.10;99.90
25582;DHT22;13462;50.764;4.332;2022-08-03T00:16:13;20.10;99.90
25582;DHT22;13462;50.764;4.332;2022-08-03T00:18:38;20.10;99.90
25582;DHT22;13462;50.764;4.332;2022-08-03T00:21:05;20.10;99.90
25582;DHT22;13462;50.764;4.332;2022-08-03T00:23:31;20.10;99.90
25582;DHT22;13462;50.764;4.332;2022-08-03T00:25:56;20.00;99.90
25582;DHT22;13462;50.764;4.332;2022-08-03T00:28:22;20.10;99.90
25582;DHT22;13462;50.764;4.332;2022-08-03T00:30:48;20.10;99.90
25582;DHT22;13462;50.764;4.332;2022-08-03T00:33:13;20.10;99.90
25582;DHT22;13462;50.764;4.332;2022-08-03T00:35:39;20.10;99.90
25582;DHT22;13462;50.764;4.332;2022-08-03T00:38:05;20.10;99.90
25582;DHT22;13462;50.764;4.332;2022-08-03T00:40:31;20.00;99.90
25582;DHT22;13462;50.764;4.332;2022-08-03T00:43:03;20.00;99.90
25582;DHT22;13462;50.764;4.332;2022-08-03T00:45:35;19.90;99.90
25582;DHT22;13462;50.764;4.332;2022-08-03T00:48:03;20.00;99.90
25582;DHT22;13462;50.764;4.332;2022-08-03T00:50:33;20.00;99.90
25582;DHT22;13462;50.764;4.332;2022-08-03T00:53:00;20.00;99.90
25582;DHT22;13462;50.764;4.332;2022-08-03T00:55:26;20.00;99.90
25582;DHT22;13462;50.764;4.332;2022-08-03T00:57:53;20.00;99.90
25582;DHT22;13462;50.764;4.332;2022-08-03T01:00:26;19.90;99.90
25582;DHT22;13462;50.764;4.332;2022-08-03T01:02:52;19.80;99.90
25582;DHT22;13462;50.764;4.332;2022-08-03T01:05:19;19.90;99.90
25582;DHT22;13462;50.764;4.332;2022-08-03T01:16:43;19.60;99.90
25582;DHT22;13462;50.764;4.332;2022-08-03T01:31:03;19.40;99.90
25582;DHT22;13462;50.764;4.332;2022-08-03T01:33:38;19.40;99.90
25582;DHT22;13462;50.764;4.332;2022-08-03T01:36:08;19.40;99.90
25582;DHT22;13462;50.764;4.332;2022-08-03T01:38:41;19.60;99.90
25582;DHT22;13462;50.764;4.332;2022-08-03T01:41:11;19.60;99.90
25582;DHT22;13462;50.764;4.332;2022-08-03T01:43:40;19.40;99.90
25582;DHT22;13462;50.764;4.332;2022-08-03T01:46:07;19.40;99.90
25582;DHT22;13462;50.764;4.332;2022-08-03T01:48:35;19.30;99.90
25582;DHT22;13462;50.764;4.332;2022-08-03T01:51:02;19.10;99.90
25582;DHT22;13462;50.764;4.332;2022-08-03T01:53:29;19.00;99.90
25582;DHT22;13462;50.764;4.332;2022-08-03T01:55:56;18.90;99.90
25582;DHT22;13462;50.764;4.332;2022-08-03T01:58:24;18.70;99.90
25582;DHT22;13462;50.764;4.332;2022-08-03T02:00:51;18.70;99.90
25582;DHT22;13462;50.764;4.332;2022-08-03T02:03:19;18.80;99.90
25582;DHT22;13462;50.764;4.332;2022-08-03T02:05:46;18.80;99.90
25582;DHT22;13462;50.764;4.332;2022-08-03T02:08:13;19.00;99.90
25582;DHT22;13462;50.764;4.332;2022-08-03T02:10:41;19.00;99.90
25582;DHT22;13462;50.764;4.332;2022-08-03T02:13:08;19.00;99.90
25582;DHT22;13462;50.764;4.332;2022-08-03T02:15:36;19.00;99.90
25582;DHT22;13462;50.764;4.332;2022-08-03T02:18:04;18.90;99.90
25582;DHT22;13462;50.764;4.332;2022-08-03T02:20:32;19.00;99.90
25582;DHT22;13462;50.764;4.332;2022-08-03T02:23:00;19.10;99.90
25582;DHT22;13462;50.764;4.332;2022-08-03T02:25:27;19.10;99.90
25582;DHT22;13462;50.764;4.332;2022-08-03T02:28:00;19.10;99.90
25582;DHT22;13462;50.764;4.332;2022-08-03T02:30:32;18.90;99.90
25582;DHT22;13462;50.764;4.332;2022-08-03T02:33:02;18.90;99.90
25582;DHT22;13462;50.764;4.332;2022-08-03T02:35:28;18.70;99.90
25582;DHT22;13462;50.764;4.332;2022-08-03T02:38:01;18.70;99.90
25582;DHT22;13462;50.764;4.332;2022-08-03T02:40:28;18.60;99.90
25582;DHT22;13462;50.764;4.332;2022-08-03T02:42:58;18.50;99.90
25582;DHT22;13462;50.764;4.332;2022-08-03T02:45:26;18.50;99.90
25582;DHT22;13462;50.764;4.332;2022-08-03T02:47:57;18.50;99.90
25582;DHT22;13462;50.764;4.332;2022-08-03T02:50:25;18.60;99.90
25582;DHT22;13462;50.764;4.332;2022-08-03T02:52:52;18.60;99.90
25582;DHT22;13462;50.764;4.332;2022-08-03T02:55:21;18.60;99.90
25582;DHT22;13462;50.764;4.332;2022-08-03T02:57:47;18.70;99.90
25582;DHT22;13462;50.764;4.332;2022-08-03T03:00:14;18.70;99.90
25582;DHT22;13462;50.764;4.332;2022-08-03T03:02:41;18.80;99.90
25582;DHT22;13462;50.764;4.332;2022-08-03T03:05:07;18.90;99.90
25582;DHT22;13462;50.764;4.332;2022-08-03T03:07:35;18.90;99.90
25582;DHT22;13462;50.764;4.332;2022-08-03T03:10:02;18.90;99.90
25582;DHT22;13462;50.764;4.332;2022-08-03T03:12:30;18.80;99.90
25582;DHT22;13462;50.764;4.332;2022-08-03T03:14:55;18.90;99.90
25582;DHT22;13462;50.764;4.332;2022-08-03T03:17:21;19.00;99.90
25582;DHT22;13462;50.764;4.332;2022-08-03T03:19:49;19.10;99.90
25582;DHT22;13462;50.764;4.332;2022-08-03T03:22:16;19.00;99.90
25582;DHT22;13462;50.764;4.332;2022-08-03T03:24:43;19.00;99.90
25582;DHT22;13462;50.764;4.332;2022-08-03T03:27:10;19.00;99.90
25582;DHT22;13462;50.764;4.332;2022-08-03T03:29:36;19.00;99.90
25582;DHT22;13462;50.764;4.332;2022-08-03T03:32:02;19.00;99.90
25582;DHT22;13462;50.764;4.332;2022-08-03T03:34:29;19.10;99.90
25582;DHT22;13462;50.764;4.332;2022-08-03T03:36:55;19.10;99.90
25582;DHT22;13462;50.764;4.332;2022-08-03T03:39:21;19.00;99.90
25582;DHT22;13462;50.764;4.332;2022-08-03T03:41:46;19.10;99.90
25582;DHT22;13462;50.764;4.332;2022-08-03T03:44:12;19.00;99.90
25582;DHT22;13462;50.764;4.332;2022-08-03T03:46:38;19.10;99.90
25582;DHT22;13462;50.764;4.332;2022-08-03T03:49:07;19.00;99.90
25582;DHT22;13462;50.764;4.332;2022-08-03T03:51:33;19.00;99.90
25582;DHT22;13462;50.764;4.332;2022-08-03T03:54:02;18.90;99.90
25582;DHT22;13462;50.764;4.332;2022-08-03T03:56:29;18.90;99.90
25582;DHT22;13462;50.764;4.332;2022-08-03T03:58:54;18.80;99.90
25582;DHT22;13462;50.764;4.332;2022-08-03T04:01:20;18.70;99.90
25582;DHT22;13462;50.764;4.332;2022-08-03T04:03:46;18.60;99.90
25582;DHT22;13462;50.764;4.332;2022-08-03T04:06:12;18.50;99.90
25582;DHT22;13462;50.764;4.332;2022-08-03T04:08:57;18.30;99.90
25582;DHT22;13462;50.764;4.332;2022-08-03T04:11:46;18.30;99.90
25582;DHT22;13462;50.764;4.332;2022-08-03T04:14:34;18.10;99.90
25582;DHT22;13462;50.764;4.332;2022-08-03T04:17:03;18.00;99.90
25582;DHT22;13462;50.764;4.332;2022-08-03T04:19:33;17.90;99.90
25582;DHT22;13462;50.764;4.332;2022-08-03T04:22:03;17.90;99.90
25582;DHT22;13462;50.764;4.332;2022-08-03T04:24:37;17.80;99.90
25582;DHT22;13462;50.764;4.332;2022-08-03T04:27:06;17.90;99.90
25582;DHT22;13462;50.764;4.332;2022-08-03T04:29:34;17.80;99.90
25582;DHT22;13462;50.764;4.332;2022-08-03T04:32:04;17.80;99.90
25582;DHT22;13462;50.764;4.332;2022-08-03T04:34:31;17.80;99.90
25582;DHT22;13462;50.764;4.332;2022-08-03T04:37:04;17.80;99.90
25582;DHT22;13462;50.764;4.332;2022-08-03T04:39:30;17.80;99.90
25582;DHT22;13462;50.764;4.332;2022-08-03T04:42:03;17.70;99.90
25582;DHT22;13462;50.764;4.332;2022-08-03T04:44:35;17.70;99.90
25582;DHT22;13462;50.764;4.332;2022-08-03T04:47:02;17.80;99.90
25582;DHT22;13462;50.764;4.332;2022-08-03T04:49:28;17.80;99.90
25582;DHT22;13462;50.764;4.332;2022-08-03T04:51:54;17.80;99.90
25582;DHT22;13462;50.764;4.332;2022-08-03T04:54:20;17.80;99.90
25582;DHT22;13462;50.764;4.332;2022-08-03T04:56:46;17.90;99.90
25582;DHT22;13462;50.764;4.332;2022-08-03T04:59:11;18.00;99.90
25582;DHT22;13462;50.764;4.332;2022-08-03T05:01:38;18.30;99.90
25582;DHT22;13462;50.764;4.332;2022-08-03T05:04:05;18.30;99.90
25582;DHT22;13462;50.764;4.332;2022-08-03T05:06:30;18.40;99.90
25582;DHT22;13462;50.764;4.332;2022-08-03T05:08:56;18.60;99.90
25582;DHT22;13462;50.764;4.332;2022-08-03T05:11:21;18.70;99.90
25582;DHT22;13462;50.764;4.332;2022-08-03T05:13:47;18.70;99.90
25582;DHT22;13462;50.764;4.332;2022-08-03T05:16:13;18.70;99.90
25582;DHT22;13462;50.764;4.332;2022-08-03T05:18:40;18.70;99.90
25582;DHT22;13462;50.764;4.332;2022-08-03T05:21:06;18.70;99.90
25582;DHT22;13462;50.764;4.332;2022-08-03T05:23:32;18.90;99.90
25582;DHT22;13462;50.764;4.332;2022-08-03T05:25:57;19.00;99.90
25582;DHT22;13462;50.764;4.332;2022-08-03T05:28:23;19.10;99.90
25582;DHT22;13462;50.764;4.332;2022-08-03T05:30:49;19.20;99.90
25582;DHT22;13462;50.764;4.332;2022-08-03T05:33:14;19.40;99.90
25582;DHT22;13462;50.764;4.332;2022-08-03T05:35:40;19.60;99.90
25582;DHT22;13462;50.764;4.332;2022-08-03T05:38:06;19.90;99.90
25582;DHT22;13462;50.764;4.332;2022-08-03T05:40:31;20.00;99.90
25582;DHT22;13462;50.764;4.332;2022-08-03T05:42:57;20.00;99.90
25582;DHT22;13462;50.764;4.332;2022-08-03T05:45:23;20.00;99.90
25582;DHT22;13462;50.764;4.332;2022-08-03T05:47:49;20.00;99.90
25582;DHT22;13462;50.764;4.332;2022-08-03T05:50:16;20.10;99.90
25582;DHT22;13462;50.764;4.332;2022-08-03T05:52:42;20.30;99.90
25582;DHT22;13462;50.764;4.332;2022-08-03T05:55:10;20.50;99.90
25582;DHT22;13462;50.764;4.332;2022-08-03T05:57:36;20.60;99.90
25582;DHT22;13462;50.764;4.332;2022-08-03T06:00:07;20.90;99.90
25582;DHT22;13462;50.764;4.332;2022-08-03T06:02:33;21.70;99.90
25582;DHT22;13462;50.764;4.332;2022-08-03T06:04:59;22.30;99.90
25582;DHT22;13462;50.764;4.332;2022-08-03T06:07:25;22.60;99.90
25582;DHT22;13462;50.764;4.332;2022-08-03T06:09:50;22.70;99.90
25582;DHT22;13462;50.764;4.332;2022-08-03T06:12:16;22.50;99.90
25582;DHT22;13462;50.764;4.332;2022-08-03T06:14:42;22.50;99.90
25582;DHT22;13462;50.764;4.332;2022-08-03T06:17:07;22.30;99.90
25582;DHT22;13462;50.764;4.332;2022-08-03T06:19:33;22.70;99.90
25582;DHT22;13462;50.764;4.332;2022-08-03T06:21:59;23.90;99.90
25582;DHT22;13462;50.764;4.332;2022-08-03T06:24:24;25.10;99.90
25582;DHT22;13462;50.764;4.332;2022-08-03T06:26:50;26.10;99.90
25582;DHT22;13462;50.764;4.332;2022-08-03T06:29:16;26.70;99.90
25582;DHT22;13462;50.764;4.332;2022-08-03T06:31:41;27.30;99.90
25582;DHT22;13462;50.764;4.332;2022-08-03T06:34:07;28.20;99.90
25582;DHT22;13462;50.764;4.332;2022-08-03T06:36:32;28.70;99.10
25582;DHT22;13462;50.764;4.332;2022-08-03T06:38:58;29.30;96.80
25582;DHT22;13462;50.764;4.332;2022-08-03T06:41:25;29.50;96.70
25582;DHT22;13462;50.764;4.332;2022-08-03T06:43:51;30.40;95.10
25582;DHT22;13462;50.764;4.332;2022-08-03T06:46:17;31.20;93.80
25582;DHT22;13462;50.764;4.332;2022-08-03T06:48:42;32.10;93.30
25582;DHT22;13462;50.764;4.332;2022-08-03T06:51:08;31.70;91.20
25582;DHT22;13462;50.764;4.332;2022-08-03T06:53:34;32.30;91.30
25582;DHT22;13462;50.764;4.332;2022-08-03T06:56:00;31.70;91.00
25582;DHT22;13462;50.764;4.332;2022-08-03T06:58:25;30.70;91.70
25582;DHT22;13462;50.764;4.332;2022-08-03T07:00:52;29.70;93.10
25582;DHT22;13462;50.764;4.332;2022-08-03T07:03:17;29.20;93.20
25582;DHT22;13462;50.764;4.332;2022-08-03T07:05:43;29.40;93.90
25582;DHT22;13462;50.764;4.332;2022-08-03T07:08:15;30.00;93.00
25582;DHT22;13462;50.764;4.332;2022-08-03T07:10:40;30.30;92.10
25582;DHT22;13462;50.764;4.332;2022-08-03T07:13:06;29.40;92.70
25582;DHT22;13462;50.764;4.332;2022-08-03T07:15:32;28.60;94.20
25582;DHT22;13462;50.764;4.332;2022-08-03T07:17:58;28.00;95.00
25582;DHT22;13462;50.764;4.332;2022-08-03T07:20:24;27.60;96.50
25582;DHT22;13462;50.764;4.332;2022-08-03T07:22:49;28.00;96.60
25582;DHT22;13462;50.764;4.332;2022-08-03T07:25:15;29.70;94.00
25582;DHT22;13462;50.764;4.332;2022-08-03T07:27:44;30.10;92.40
25582;DHT22;13462;50.764;4.332;2022-08-03T07:30:10;29.20;93.20
25582;DHT22;13462;50.764;4.332;2022-08-03T07:32:36;28.40;94.80
25582;DHT22;13462;50.764;4.332;2022-08-03T07:35:03;28.10;95.70
25582;DHT22;13462;50.764;4.332;2022-08-03T07:37:29;27.90;95.00
25582;DHT22;13462;50.764;4.332;2022-08-03T07:39:55;27.10;96.20
25582;DHT22;13462;50.764;4.332;2022-08-03T07:42:20;27.60;96.70
25582;DHT22;13462;50.764;4.332;2022-08-03T07:44:47;29.70;94.50
25582;DHT22;13462;50.764;4.332;2022-08-03T07:47:18;31.90;91.20
25582;DHT22;13462;50.764;4.332;2022-08-03T07:49:43;32.70;87.70
25582;DHT22;13462;50.764;4.332;2022-08-03T07:52:09;33.70;85.70
25582;DHT22;13462;50.764;4.332;2022-08-03T07:54:53;34.00;81.80
25582;DHT22;13462;50.764;4.332;2022-08-03T07:57:19;34.80;79.80
25582;DHT22;13462;50.764;4.332;2022-08-03T07:59:45;36.20;78.10
25582;DHT22;13462;50.764;4.332;2022-08-03T08:02:12;38.00;74.00
25582;DHT22;13462;50.764;4.332;2022-08-03T08:04:37;38.50;69.50
25582;DHT22;13462;50.764;4.332;2022-08-03T08:07:03;37.80;68.00
25582;DHT22;13462;50.764;4.332;2022-08-03T08:09:28;36.90;68.20
25582;DHT22;13462;50.764;4.332;2022-08-03T08:11:55;37.10;68.30
25582;DHT22;13462;50.764;4.332;2022-08-03T08:14:20;37.70;67.80
25582;DHT22;13462;50.764;4.332;2022-08-03T08:16:46;38.70;67.80
25582;DHT22;13462;50.764;4.332;2022-08-03T08:19:12;39.70;62.40
25582;DHT22;13462;50.764;4.332;2022-08-03T08:21:41;40.20;59.70
25582;DHT22;13462;50.764;4.332;2022-08-03T08:24:07;40.30;57.40
25582;DHT22;13462;50.764;4.332;2022-08-03T08:26:32;40.10;58.60
25582;DHT22;13462;50.764;4.332;2022-08-03T08:28:58;40.40;57.60
25582;DHT22;13462;50.764;4.332;2022-08-03T08:31:23;40.20;57.20
25582;DHT22;13462;50.764;4.332;2022-08-03T08:33:49;40.60;54.50
25582;DHT22;13462;50.764;4.332;2022-08-03T08:36:15;40.30;56.00
25582;DHT22;13462;50.764;4.332;2022-08-03T08:38:40;39.50;55.80
25582;DHT22;13462;50.764;4.332;2022-08-03T08:41:08;39.80;56.70
25582;DHT22;13462;50.764;4.332;2022-08-03T08:43:34;40.10;54.60
25582;DHT22;13462;50.764;4.332;2022-08-03T08:46:00;39.80;55.30
25582;DHT22;13462;50.764;4.332;2022-08-03T08:48:27;40.30;55.60
25582;DHT22;13462;50.764;4.332;2022-08-03T08:50:55;40.70;54.80
25582;DHT22;13462;50.764;4.332;2022-08-03T08:53:25;40.60;55.30
25582;DHT22;13462;50.764;4.332;2022-08-03T08:55:55;40.40;54.70
25582;DHT22;13462;50.764;4.332;2022-08-03T08:58:23;40.60;53.80
25582;DHT22;13462;50.764;4.332;2022-08-03T09:00:50;40.90;54.20
25582;DHT22;13462;50.764;4.332;2022-08-03T09:03:16;40.50;54.80
25582;DHT22;13462;50.764;4.332;2022-08-03T09:05:42;41.50;55.70
25582;DHT22;13462;50.764;4.332;2022-08-03T09:08:09;42.80;51.80
25582;DHT22;13462;50.764;4.332;2022-08-03T09:10:34;41.50;52.10
25582;DHT22;13462;50.764;4.332;2022-08-03T09:13:00;41.20;52.70
25582;DHT22;13462;50.764;4.332;2022-08-03T09:15:30;41.90;51.50
25582;DHT22;13462;50.764;4.332;2022-08-03T09:17:58;41.60;51.80
25582;DHT22;13462;50.764;4.332;2022-08-03T09:20:26;41.20;51.20
25582;DHT22;13462;50.764;4.332;2022-08-03T09:23:04;40.50;53.80
25582;DHT22;13462;50.764;4.332;2022-08-03T09:25:37;40.80;51.70
25582;DHT22;13462;50.764;4.332;2022-08-03T09:28:13;40.50;51.60
25582;DHT22;13462;50.764;4.332;2022-08-03T09:30:41;40.40;51.90
25582;DHT22;13462;50.764;4.332;2022-08-03T09:33:08;40.10;53.30
25582;DHT22;13462;50.764;4.332;2022-08-03T09:35:45;39.50;52.30
25582;DHT22;13462;50.764;4.332;2022-08-03T09:38:22;39.60;52.60
25582;DHT22;13462;50.764;4.332;2022-08-03T09:40:48;39.90;54.50
25582;DHT22;13462;50.764;4.332;2022-08-03T09:43:15;40.30;52.20
25582;DHT22;13462;50.764;4.332;2022-08-03T09:45:41;40.80;52.90
25582;DHT22;13462;50.764;4.332;2022-08-03T09:48:24;41.80;51.90
25582;DHT22;13462;50.764;4.332;2022-08-03T09:50:50;42.60;49.80
25582;DHT22;13462;50.764;4.332;2022-08-03T09:53:17;42.60;49.90
25582;DHT22;13462;50.764;4.332;2022-08-03T09:55:57;42.60;49.40
25582;DHT22;13462;50.764;4.332;2022-08-03T09:58:25;43.40;49.70
25582;DHT22;13462;50.764;4.332;2022-08-03T10:00:56;43.70;50.00
25582;DHT22;13462;50.764;4.332;2022-08-03T10:03:22;43.40;48.90
25582;DHT22;13462;50.764;4.332;2022-08-03T10:05:48;43.40;48.10
25582;DHT22;13462;50.764;4.332;2022-08-03T10:08:16;43.10;49.50
25582;DHT22;13462;50.764;4.332;2022-08-03T10:10:43;43.40;48.60
25582;DHT22;13462;50.764;4.332;2022-08-03T10:13:12;42.90;48.50
25582;DHT22;13462;50.764;4.332;2022-08-03T10:15:39;43.10;48.70
25582;DHT22;13462;50.764;4.332;2022-08-03T10:18:05;43.10;48.40
25582;DHT22;13462;50.764;4.332;2022-08-03T10:20:36;42.40;48.80
25582;DHT22;13462;50.764;4.332;2022-08-03T10:23:03;42.40;49.30
25582;DHT22;13462;50.764;4.332;2022-08-03T10:25:29;42.40;49.80
25582;DHT22;13462;50.764;4.332;2022-08-03T10:27:56;42.30;48.60
25582;DHT22;13462;50.764;4.332;2022-08-03T10:30:23;41.40;49.20
25582;DHT22;13462;50.764;4.332;2022-08-03T10:33:03;41.70;49.70
25582;DHT22;13462;50.764;4.332;2022-08-03T10:35:30;41.60;50.00
25582;DHT22;13462;50.764;4.332;2022-08-03T10:40:22;42.00;50.20
25582;DHT22;13462;50.764;4.332;2022-08-03T10:42:50;42.60;47.90
25582;DHT22;13462;50.764;4.332;2022-08-03T10:45:20;41.80;49.90
25582;DHT22;13462;50.764;4.332;2022-08-03T10:47:48;41.90;50.10
25582;DHT22;13462;50.764;4.332;2022-08-03T10:50:15;42.20;48.70
25582;DHT22;13462;50.764;4.332;2022-08-03T10:52:57;41.90;48.60
25582;DHT22;13462;50.764;4.332;2022-08-03T11:01:09;42.10;48.60
25582;DHT22;13462;50.764;4.332;2022-08-03T11:06:18;43.00;47.80
25582;DHT22;13462;50.764;4.332;2022-08-03T11:08:48;42.80;47.30
25582;DHT22;13462;50.764;4.332;2022-08-03T11:16:26;43.20;46.00
25582;DHT22;13462;50.764;4.332;2022-08-03T11:18:59;43.60;48.00
25582;DHT22;13462;50.764;4.332;2022-08-03T11:27:20;44.30;46.50
25582;DHT22;13462;50.764;4.332;2022-08-03T11:35:10;42.80;46.20
25582;DHT22;13462;50.764;4.332;2022-08-03T11:40:44;42.40;46.20
25582;DHT22;13462;50.764;4.332;2022-08-03T11:45:59;42.40;47.60
25582;DHT22;13462;50.764;4.332;2022-08-03T11:48:27;42.60;46.30
25582;DHT22;13462;50.764;4.332;2022-08-03T11:50:58;43.10;46.30
25582;DHT22;13462;50.764;4.332;2022-08-03T11:53:24;43.40;45.70
25582;DHT22;13462;50.764;4.332;2022-08-03T11:55:50;42.80;45.30
25582;DHT22;13462;50.764;4.332;2022-08-03T11:58:20;42.20;45.60
25582;DHT22;13462;50.764;4.332;2022-08-03T12:00:46;42.60;46.50
25582;DHT22;13462;50.764;4.332;2022-08-03T12:03:14;42.00;46.70
25582;DHT22;13462;50.764;4.332;2022-08-03T12:05:49;41.00;47.60
25582;DHT22;13462;50.764;4.332;2022-08-03T12:08:17;40.60;48.30
25582;DHT22;13462;50.764;4.332;2022-08-03T12:10:48;41.40;49.00
25582;DHT22;13462;50.764;4.332;2022-08-03T12:13:14;41.50;47.10
25582;DHT22;13462;50.764;4.332;2022-08-03T12:15:40;41.40;48.00
25582;DHT22;13462;50.764;4.332;2022-08-03T12:18:17;41.20;49.00
25582;DHT22;13462;50.764;4.332;2022-08-03T12:20:44;41.30;48.60
25582;DHT22;13462;50.764;4.332;2022-08-03T12:23:10;41.80;48.10
25582;DHT22;13462;50.764;4.332;2022-08-03T12:25:38;41.50;48.40
25582;DHT22;13462;50.764;4.332;2022-08-03T12:28:13;42.40;46.80
25582;DHT22;13462;50.764;4.332;2022-08-03T12:30:41;42.30;46.20
25582;DHT22;13462;50.764;4.332;2022-08-03T12:33:14;42.00;46.00
25582;DHT22;13462;50.764;4.332;2022-08-03T12:35:40;40.40;48.30
25582;DHT22;13462;50.764;4.332;2022-08-03T12:38:06;40.80;49.80
25582;DHT22;13462;50.764;4.332;2022-08-03T12:40:31;41.50;47.90
25582;DHT22;13462;50.764;4.332;2022-08-03T12:42:57;41.80;46.90
25582;DHT22;13462;50.764;4.332;2022-08-03T12:45:25;41.80;47.50
25582;DHT22;13462;50.764;4.332;2022-08-03T12:48:00;42.00;45.90
25582;DHT22;13462;50.764;4.332;2022-08-03T12:50:31;41.80;47.30
25582;DHT22;13462;50.764;4.332;2022-08-03T12:52:59;40.90;47.30
25582;DHT22;13462;50.764;4.332;2022-08-03T12:55:25;41.20;47.80
25582;DHT22;13462;50.764;4.332;2022-08-03T12:58:05;41.40;48.00
25582;DHT22;13462;50.764;4.332;2022-08-03T13:00:31;42.00;47.60
25582;DHT22;13462;50.764;4.332;2022-08-03T13:03:01;42.70;46.80
25582;DHT22;13462;50.764;4.332;2022-08-03T13:05:28;42.80;43.40
25582;DHT22;13462;50.764;4.332;2022-08-03T13:07:54;42.20;44.70
25582;DHT22;13462;50.764;4.332;2022-08-03T13:10:31;41.10;45.80
25582;DHT22;13462;50.764;4.332;2022-08-03T13:12:58;40.90;47.30
25582;DHT22;13462;50.764;4.332;2022-08-03T13:15:27;40.60;49.00
25582;DHT22;13462;50.764;4.332;2022-08-03T13:17:55;40.60;49.40
25582;DHT22;13462;50.764;4.332;2022-08-03T13:20:21;41.30;48.70
25582;DHT22;13462;50.764;4.332;2022-08-03T13:22:47;40.80;47.50
25582;DHT22;13462;50.764;4.332;2022-08-03T13:25:12;40.50;48.60
25582;DHT22;13462;50.764;4.332;2022-08-03T13:27:39;41.10;49.40
25582;DHT22;13462;50.764;4.332;2022-08-03T13:30:05;41.40;47.30
25582;DHT22;13462;50.764;4.332;2022-08-03T13:32:32;42.10;47.40
25582;DHT22;13462;50.764;4.332;2022-08-03T13:34:58;42.00;46.60
25582;DHT22;13462;50.764;4.332;2022-08-03T13:37:24;42.40;47.00
25582;DHT22;13462;50.764;4.332;2022-08-03T13:39:49;41.80;45.30
25582;DHT22;13462;50.764;4.332;2022-08-03T13:42:15;41.50;46.00
25582;DHT22;13462;50.764;4.332;2022-08-03T13:44:41;41.00;48.00
25582;DHT22;13462;50.764;4.332;2022-08-03T13:47:07;41.20;48.10
25582;DHT22;13462;50.764;4.332;2022-08-03T13:49:33;41.10;47.20
25582;DHT22;13462;50.764;4.332;2022-08-03T13:51:59;40.60;48.20
25582;DHT22;13462;50.764;4.332;2022-08-03T13:54:25;40.40;48.50
25582;DHT22;13462;50.764;4.332;2022-08-03T13:56:52;39.80;49.50
25582;DHT22;13462;50.764;4.332;2022-08-03T13:59:22;39.90;50.10
25582;DHT22;13462;50.764;4.332;2022-08-03T14:01:49;39.60;48.40
25582;DHT22;13462;50.764;4.332;2022-08-03T14:04:15;39.20;50.00
25582;DHT22;13462;50.764;4.332;2022-08-03T14:06:41;39.20;48.50
25582;DHT22;13462;50.764;4.332;2022-08-03T14:09:08;39.20;48.80
25582;DHT22;13462;50.764;4.332;2022-08-03T14:11:34;38.80;48.40
25582;DHT22;13462;50.764;4.332;2022-08-03T14:13:59;38.00;50.40
25582;DHT22;13462;50.764;4.332;2022-08-03T14:16:25;37.60;52.30
25582;DHT22;13462;50.764;4.332;2022-08-03T14:18:51;37.40;51.70
25582;DHT22;13462;50.764;4.332;2022-08-03T14:21:16;36.70;51.80
25582;DHT22;13462;50.764;4.332;2022-08-03T14:23:42;35.90;53.70
25582;DHT22;13462;50.764;4.332;2022-08-03T14:26:08;35.40;54.00
25582;DHT22;13462;50.764;4.332;2022-08-03T14:28:34;34.80;54.60
25582;DHT22;13462;50.764;4.332;2022-08-03T14:31:00;34.60;55.50
25582;DHT22;13462;50.764;4.332;2022-08-03T14:33:26;34.80;55.60
25582;DHT22;13462;50.764;4.332;2022-08-03T14:35:53;35.30;55.70
25582;DHT22;13462;50.764;4.332;2022-08-03T14:38:19;35.60;55.00
25582;DHT22;13462;50.764;4.332;2022-08-03T14:40:45;35.50;53.20
25582;DHT22;13462;50.764;4.332;2022-08-03T14:43:11;35.40;53.80
25582;DHT22;13462;50.764;4.332;2022-08-03T14:45:38;35.10;54.40
25582;DHT22;13462;50.764;4.332;2022-08-03T14:48:04;35.30;55.20
25582;DHT22;13462;50.764;4.332;2022-08-03T14:50:29;35.50;56.10
25582;DHT22;13462;50.764;4.332;2022-08-03T14:52:55;35.40;55.00
25582;DHT22;13462;50.764;4.332;2022-08-03T14:55:21;35.70;54.80
25582;DHT22;13462;50.764;4.332;2022-08-03T14:57:46;35.70;54.60
25582;DHT22;13462;50.764;4.332;2022-08-03T15:00:12;35.80;55.00
25582;DHT22;13462;50.764;4.332;2022-08-03T15:02:38;35.80;55.60
25582;DHT22;13462;50.764;4.332;2022-08-03T15:05:04;35.70;55.20
25582;DHT22;13462;50.764;4.332;2022-08-03T15:07:30;35.70;54.90
25582;DHT22;13462;50.764;4.332;2022-08-03T15:09:55;35.70;54.40
25582;DHT22;13462;50.764;4.332;2022-08-03T15:12:21;35.40;54.60
25582;DHT22;13462;50.764;4.332;2022-08-03T15:14:46;35.10;55.10
25582;DHT22;13462;50.764;4.332;2022-08-03T15:17:12;35.20;55.30
25582;DHT22;13462;50.764;4.332;2022-08-03T15:19:38;35.20;56.80
25582;DHT22;13462;50.764;4.332;2022-08-03T15:22:04;35.10;57.20
25582;DHT22;13462;50.764;4.332;2022-08-03T15:24:30;35.10;54.30
25582;DHT22;13462;50.764;4.332;2022-08-03T15:26:56;35.10;57.50
25582;DHT22;13462;50.764;4.332;2022-08-03T15:29:22;35.10;57.70
25582;DHT22;13462;50.764;4.332;2022-08-03T15:31:47;35.20;55.00
25582;DHT22;13462;50.764;4.332;2022-08-03T15:34:13;35.30;56.90
25582;DHT22;13462;50.764;4.332;2022-08-03T15:36:38;35.40;56.00
25582;DHT22;13462;50.764;4.332;2022-08-03T15:39:04;35.20;55.00
25582;DHT22;13462;50.764;4.332;2022-08-03T15:41:30;35.10;55.50
25582;DHT22;13462;50.764;4.332;2022-08-03T15:43:56;35.10;55.00
25582;DHT22;13462;50.764;4.332;2022-08-03T15:46:21;35.10;54.70
25582;DHT22;13462;50.764;4.332;2022-08-03T15:48:47;34.70;56.70
25582;DHT22;13462;50.764;4.332;2022-08-03T15:51:13;34.60;56.80
25582;DHT22;13462;50.764;4.332;2022-08-03T15:53:39;34.40;56.70
25582;DHT22;13462;50.764;4.332;2022-08-03T15:56:05;34.50;57.80
25582;DHT22;13462;50.764;4.332;2022-08-03T15:58:37;34.70;56.50
25582;DHT22;13462;50.764;4.332;2022-08-03T16:01:04;34.90;56.00
25582;DHT22;13462;50.764;4.332;2022-08-03T16:03:31;35.00;55.00
25582;DHT22;13462;50.764;4.332;2022-08-03T16:06:04;35.10;56.40
25582;DHT22;13462;50.764;4.332;2022-08-03T16:08:30;35.10;55.80
25582;DHT22;13462;50.764;4.332;2022-08-03T16:10:57;35.00;56.90
25582;DHT22;13462;50.764;4.332;2022-08-03T16:13:23;34.80;57.10
25582;DHT22;13462;50.764;4.332;2022-08-03T16:15:49;34.80;55.70
25582;DHT22;13462;50.764;4.332;2022-08-03T16:18:15;34.80;58.10
25582;DHT22;13462;50.764;4.332;2022-08-03T16:20:41;34.60;56.70
25582;DHT22;13462;50.764;4.332;2022-08-03T16:23:06;34.80;56.10
25582;DHT22;13462;50.764;4.332;2022-08-03T16:25:32;35.00;56.30